Time;durP1;ratioP1;P1;durP2;ratioP2;P2;SDS_P1;SDS_P2;PMS_P1;PMS_P2;Temp;Humidity;BMP_temperature;BMP_pressure;BME280_temperature;BME280_humidity;BME280_pressure;Samples;Min_cycle;Max_cycle;Signal;HPM_P1;HPM_P2
2022/08/31 00:04:48;;;;;;;;;;;;;;;;;;1012711;29;19934;-74
2022/08/31 00:05:19;;;;;;;;;;;;;;;;;;1008562;29;20018;-74
2022/08/31 00:05:49;;;;;;;;;;;;;;;;;;1011846;29;19940;-74
2022/08/31 00:06:19;;;;;;;;;;;;;;;;;;1016628;29;19910;-74
2022/08/31 00:06:50;;;;;;;;;;;;;;;;;;1016722;29;20360;-74
2022/08/31 00:07:20;;;;;;;;;;;;;;;;;;1020521;29;19911;-74
2022/08/31 00:07:50;;;;;;;;;;;;;;;;;;1020704;29;19974;-74
2022/08/31 00:08:21;;;;;;;;;;;;;;;;;;1020512;29;19911;-74
2022/08/31 00:08:51;;;;;;;;;;;;;;;;;;1020699;29;19953;-74
2022/08/31 00:09:21;;;;;;;;;;;;;;;;;;1020538;29;20343;-74
2022/08/31 00:09:52;;;;;;;;;;;;;;;;;;1020652;29;19910;-74
2022/08/31 00:10:26;;;;;;;;;;;;;;;;;;1020530;29;20417;-74
2022/08/31 00:10:56;;;;;;;;;;;;;;;;;;1020645;29;19987;-74
2022/08/31 00:11:29;;;;;;;;;;;;;;;;;;1020523;29;19915;-74
2022/08/31 00:11:59;;;;;;;;;;;;;;;;;;1020617;29;19934;-74
2022/08/31 00:12:29;;;;;;;;;;;;;;;;;;1020637;29;20008;-74
2022/08/31 00:13:00;;;;;;;;;;;;;;;;;;1020989;29;19911;-74
2022/08/31 00:13:30;;;;;;;;;;;;;;;;;;1020936;29;19911;-74
2022/08/31 00:14:00;;;;;;;;;;;;;;;;;;1020924;29;19943;-74
2022/08/31 00:14:30;;;;;;;;;;;;;;;;;;1020935;29;19915;-74
2022/08/31 00:15:02;;;;;;;;;;;;;;;;;;1020563;29;19911;-74
2022/08/31 00:15:32;;;;;;;;;;;;;;;;;;1020454;29;19921;-74
2022/08/31 00:16:02;;;;;;;;;;;;;;;;;;1020641;29;20455;-74
2022/08/31 00:16:32;;;;;;;;;;;;;;;;;;1020622;29;19910;-74
2022/08/31 00:17:03;;;;;;;;;;;;;;;;;;1020564;29;19974;-74
2022/08/31 00:17:33;;;;;;;;;;;;;;;;;;1020995;29;20318;-74
2022/08/31 00:18:04;;;;;;;;;;;;;;;;;;1020861;29;19966;-74
2022/08/31 00:18:34;;;;;;;;;;;;;;;;;;1021032;29;19910;-74
2022/08/31 00:19:04;;;;;;;;;;;;;;;;;;1020857;29;19910;-74
2022/08/31 00:19:35;;;;;;;;;;;;;;;;;;1021010;29;19910;-74
2022/08/31 00:20:05;;;;;;;;;;;;;;;;;;1020876;29;19910;-74
2022/08/31 00:20:35;;;;;;;;;;;;;;;;;;1020986;29;19911;-74
2022/08/31 00:21:05;;;;;;;;;;;;;;;;;;1020809;29;20364;-74
2022/08/31 00:21:37;;;;;;;;;;;;;;;;;;1020971;29;19919;-74
2022/08/31 00:22:08;;;;;;;;;;;;;;;;;;1020693;29;19910;-74
2022/08/31 00:22:38;;;;;;;;;;;;;;;;;;1020999;29;19907;-74
2022/08/31 00:23:09;;;;;;;;;;;;;;;;;;1020817;29;19911;-74
2022/08/31 00:23:39;;;;;;;;;;;;;;;;;;1020958;29;20363;-74
2022/08/31 00:24:09;;;;;;;;;;;;;;;;;;1020809;29;20368;-74
2022/08/31 00:24:40;;;;;;;;;;;;;;;;;;1020954;29;19911;-74
2022/08/31 00:25:10;;;;;;;;;;;;;;;;;;1020377;29;20304;-74
2022/08/31 00:25:40;;;;;;;;;;;;;;;;;;1020659;29;19910;-74
2022/08/31 00:26:11;;;;;;;;;;;;;;;;;;1020531;29;19915;-74
2022/08/31 00:26:41;;;;;;;;;;;;;;;;;;1020586;29;20425;-74
2022/08/31 00:27:14;;;;;;;;;;;;;;;;;;1020299;29;20299;-74
2022/08/31 00:27:44;;;;;;;;;;;;;;;;;;1020686;29;19960;-74
2022/08/31 00:28:14;;;;;;;;;;;;;;;;;;1016476;29;19917;-74
2022/08/31 00:28:44;;;;;;;;;;;;;;;;;;1016692;29;19911;-74
2022/08/31 00:29:15;;;;;;;;;;;;;;;;;;1016554;29;20297;-74
2022/08/31 00:29:45;;;;;;;;;;;;;;;;;;1016787;29;19934;-74
2022/08/31 00:30:15;;;;;;;;;;;;;;;;;;1020812;29;19911;-74
2022/08/31 00:30:46;;;;;;;;;;;;;;;;;;1021042;29;19933;-74
2022/08/31 00:31:16;;;;;;;;;;;;;;;;;;1020647;29;19910;-74
2022/08/31 00:31:46;;;;;;;;;;;;;;;;;;1020907;29;19997;-74
2022/08/31 00:32:16;;;;;;;;;;;;;;;;;;1020741;29;19915;-74
2022/08/31 00:32:47;;;;;;;;;;;;;;;;;;1020982;29;19912;-74
2022/08/31 00:33:17;;;;;;;;;;;;;;;;;;1020730;29;19910;-74
2022/08/31 00:33:51;;;;;;;;;;;;;;;;;;1021045;29;19911;-74
2022/08/31 00:34:21;;;;;;;;;;;;;;;;;;1020280;29;19911;-74
2022/08/31 00:34:52;;;;;;;;;;;;;;;;;;1020689;29;19915;-74
2022/08/31 00:35:22;;;;;;;;;;;;;;;;;;1020443;29;19947;-74
2022/08/31 00:35:52;;;;;;;;;;;;;;;;;;1020693;29;19911;-74
2022/08/31 00:36:23;;;;;;;;;;;;;;;;;;1020707;29;19949;-74
2022/08/31 00:36:53;;;;;;;;;;;;;;;;;;1020858;29;19957;-74
2022/08/31 00:37:23;;;;;;;;;;;;;;;;;;1020757;29;19914;-74
2022/08/31 00:37:53;;;;;;;;;;;;;;;;;;1020909;29;20375;-74
2022/08/31 00:38:24;;;;;;;;;;;;;;;;;;1020696;29;19945;-74
2022/08/31 00:38:55;;;;;;;;;;;;;;;;;;1020931;29;19910;-74
2022/08/31 00:39:25;;;;;;;;;;;;;;;;;;1020710;29;19942;-74
2022/08/31 00:39:56;;;;;;;;;;;;;;;;;;1020935;29;19910;-74
2022/08/31 00:40:26;;;;;;;;;;;;;;;;;;1020757;29;19911;-74
2022/08/31 00:40:56;;;;;;;;;;;;;;;;;;1020500;29;20407;-74
2022/08/31 00:41:27;;;;;;;;;;;;;;;;;;1020418;29;19910;-74
2022/08/31 00:42:00;;;;;;;;;;;;;;;;;;1016411;29;19934;-74
2022/08/31 00:42:30;;;;;;;;;;;;;;;;;;1016603;29;19960;-74
2022/08/31 00:43:00;;;;;;;;;;;;;;;;;;1016552;29;19918;-74
2022/08/31 00:43:31;;;;;;;;;;;;;;;;;;1016654;29;19954;-74
2022/08/31 00:44:01;;;;;;;;;;;;;;;;;;1020408;29;19910;-74
2022/08/31 00:44:31;;;;;;;;;;;;;;;;;;1020542;29;19915;-74
2022/08/31 00:45:01;;;;;;;;;;;;;;;;;;1020532;29;19921;-74
2022/08/31 00:45:32;;;;;;;;;;;;;;;;;;1020384;29;19921;-74
2022/08/31 00:46:02;;;;;;;;;;;;;;;;;;1020478;29;19989;-74
2022/08/31 00:46:32;;;;;;;;;;;;;;;;;;1020522;29;20016;-74
2022/08/31 00:47:03;;;;;;;;;;;;;;;;;;1020501;29;19910;-74
2022/08/31 00:47:33;;;;;;;;;;;;;;;;;;1020488;29;20494;-74
2022/08/31 00:48:03;;;;;;;;;;;;;;;;;;1020502;29;20271;-74
2022/08/31 00:48:33;;;;;;;;;;;;;;;;;;1020569;29;19911;-74
2022/08/31 00:49:04;;;;;;;;;;;;;;;;;;1020455;29;19915;-74
2022/08/31 00:49:34;;;;;;;;;;;;;;;;;;1020799;29;19932;-74
2022/08/31 00:50:04;;;;;;;;;;;;;;;;;;1020733;29;19911;-74
2022/08/31 00:50:35;;;;;;;;;;;;;;;;;;1020818;29;20362;-74
2022/08/31 00:51:05;;;;;;;;;;;;;;;;;;1020324;29;19965;-74
2022/08/31 00:51:35;;;;;;;;;;;;;;;;;;1020494;29;20029;-74
2022/08/31 00:52:05;;;;;;;;;;;;;;;;;;1020373;29;19914;-74
2022/08/31 00:52:36;;;;;;;;;;;;;;;;;;1020431;29;19969;-74
2022/08/31 00:53:06;;;;;;;;;;;;;;;;;;1020475;29;19911;-74
2022/08/31 00:53:36;;;;;;;;;;;;;;;;;;1020431;29;20017;-74
2022/08/31 00:54:06;;;;;;;;;;;;;;;;;;1020466;29;20367;-74
2022/08/31 00:54:37;;;;;;;;;;;;;;;;;;1020560;29;20021;-74
2022/08/31 00:55:07;;;;;;;;;;;;;;;;;;1020395;29;19915;-74
2022/08/31 00:55:37;;;;;;;;;;;;;;;;;;1020883;29;20008;-74
2022/08/31 00:56:08;;;;;;;;;;;;;;;;;;1020725;29;19917;-74
2022/08/31 00:56:38;;;;;;;;;;;;;;;;;;1020403;29;20410;-74
2022/08/31 00:57:08;;;;;;;;;;;;;;;;;;1020372;29;19915;-74
2022/08/31 00:57:39;;;;;;;;;;;;;;;;;;1020538;29;19945;-74
2022/08/31 00:58:09;;;;;;;;;;;;;;;;;;1020311;29;19911;-74
2022/08/31 00:58:39;;;;;;;;;;;;;;;;;;1020880;29;20384;-74
2022/08/31 00:59:09;;;;;;;;;;;;;;;;;;1020690;29;20009;-74
2022/08/31 00:59:40;;;;;;;;;;;;;;;;;;1020795;29;20283;-74
2022/08/31 01:00:10;;;;;;;;;;;;;;;;;;1020197;29;20379;-74
2022/08/31 01:00:41;;;;;;;;;;;;;;;;;;1020568;29;19910;-74
2022/08/31 01:01:12;;;;;;;;;;;;;;;;;;1020343;29;20397;-74
2022/08/31 01:01:42;;;;;;;;;;;;;;;;;;1020407;29;19910;-74
2022/08/31 01:02:12;;;;;;;;;;;;;;;;;;1016388;29;19918;-74
2022/08/31 01:02:43;;;;;;;;;;;;;;;;;;1016626;29;19915;-74
2022/08/31 01:03:13;;;;;;;;;;;;;;;;;;1016752;29;19938;-74
2022/08/31 01:03:43;;;;;;;;;;;;;;;;;;1016873;29;19915;-74
2022/08/31 01:04:13;;;;;;;;;;;;;;;;;;1016489;29;19915;-74
2022/08/31 01:04:44;;;;;;;;;;;;;;;;;;1020047;29;19911;-74
2022/08/31 01:05:14;;;;;;;;;;;;;;;;;;1020369;29;19917;-74
2022/08/31 01:05:44;;;;;;;;;;;;;;;;;;1020530;29;19934;-74
2022/08/31 01:06:15;;;;;;;;;;;;;;;;;;1020312;29;20466;-74
2022/08/31 01:06:46;;;;;;;;;;;;;;;;;;1020836;29;20470;-74
2022/08/31 01:07:16;;;;;;;;;;;;;;;;;;1020613;29;20397;-74
2022/08/31 01:07:46;;;;;;;;;;;;;;;;;;1020930;29;19911;-74
2022/08/31 01:08:16;;;;;;;;;;;;;;;;;;1020630;29;19910;-74
2022/08/31 01:08:47;;;;;;;;;;;;;;;;;;1020877;29;19911;-74
2022/08/31 01:09:17;;;;;;;;;;;;;;;;;;1020617;29;19910;-74
2022/08/31 01:09:47;;;;;;;;;;;;;;;;;;1020892;29;19910;-74
2022/08/31 01:10:17;;;;;;;;;;;;;;;;;;1020582;29;20386;-74
2022/08/31 01:10:48;;;;;;;;;;;;;;;;;;1020833;29;20001;-74
2022/08/31 01:11:18;;;;;;;;;;;;;;;;;;1020128;29;19998;-74
2022/08/31 01:11:48;;;;;;;;;;;;;;;;;;1020493;29;19917;-74
2022/08/31 01:12:19;;;;;;;;;;;;;;;;;;1020286;29;19914;-74
2022/08/31 01:12:49;;;;;;;;;;;;;;;;;;1020374;29;19911;-74
2022/08/31 01:13:19;;;;;;;;;;;;;;;;;;1020267;29;19910;-74
2022/08/31 01:13:50;;;;;;;;;;;;;;;;;;1020529;29;19945;-74
2022/08/31 01:14:20;;;;;;;;;;;;;;;;;;1020294;29;20264;-74
2022/08/31 01:14:50;;;;;;;;;;;;;;;;;;1020880;29;19921;-74
2022/08/31 01:15:21;;;;;;;;;;;;;;;;;;1020638;29;19910;-74
2022/08/31 01:15:51;;;;;;;;;;;;;;;;;;1020811;29;19961;-74
2022/08/31 01:16:21;;;;;;;;;;;;;;;;;;1020566;29;19915;-74
2022/08/31 01:16:52;;;;;;;;;;;;;;;;;;1020784;29;19915;-74
2022/08/31 01:17:22;;;;;;;;;;;;;;;;;;1020584;29;19917;-74
2022/08/31 01:17:52;;;;;;;;;;;;;;;;;;1020845;29;19918;-74
2022/08/31 01:18:22;;;;;;;;;;;;;;;;;;1020562;29;19942;-74
2022/08/31 01:18:53;;;;;;;;;;;;;;;;;;1020811;29;19911;-74
2022/08/31 01:19:23;;;;;;;;;;;;;;;;;;1020184;29;19911;-74
2022/08/31 01:19:53;;;;;;;;;;;;;;;;;;1020549;29;19954;-75
2022/08/31 01:20:23;;;;;;;;;;;;;;;;;;1020305;29;19911;-74
2022/08/31 01:20:54;;;;;;;;;;;;;;;;;;1020413;29;19910;-74
2022/08/31 01:21:24;;;;;;;;;;;;;;;;;;1020285;29;19911;-74
2022/08/31 01:21:54;;;;;;;;;;;;;;;;;;1020383;29;20002;-74
2022/08/31 01:22:25;;;;;;;;;;;;;;;;;;1020124;29;19926;-74
2022/08/31 01:22:55;;;;;;;;;;;;;;;;;;1020475;29;19910;-74
2022/08/31 01:23:25;;;;;;;;;;;;;;;;;;1020288;29;20314;-74
2022/08/31 01:23:56;;;;;;;;;;;;;;;;;;1020494;29;19966;-74
2022/08/31 01:24:26;;;;;;;;;;;;;;;;;;1020561;29;19945;-74
2022/08/31 01:24:56;;;;;;;;;;;;;;;;;;1020713;29;20404;-74
2022/08/31 01:25:26;;;;;;;;;;;;;;;;;;1020585;29;19917;-74
2022/08/31 01:25:57;;;;;;;;;;;;;;;;;;1020700;29;19911;-74
2022/08/31 01:26:27;;;;;;;;;;;;;;;;;;1020188;29;19918;-74
2022/08/31 01:27:01;;;;;;;;;;;;;;;;;;1020379;29;19917;-74
2022/08/31 01:27:32;;;;;;;;;;;;;;;;;;1020292;29;20017;-74
2022/08/31 01:28:02;;;;;;;;;;;;;;;;;;1020234;29;20407;-74
2022/08/31 01:28:32;;;;;;;;;;;;;;;;;;1020382;29;19949;-74
2022/08/31 01:29:03;;;;;;;;;;;;;;;;;;1020344;29;20318;-74
2022/08/31 01:29:33;;;;;;;;;;;;;;;;;;1020665;29;19911;-74
2022/08/31 01:30:03;;;;;;;;;;;;;;;;;;1020182;29;19910;-74
2022/08/31 01:30:33;;;;;;;;;;;;;;;;;;1020231;29;19962;-74
2022/08/31 01:31:04;;;;;;;;;;;;;;;;;;1020304;29;20458;-74
2022/08/31 01:31:34;;;;;;;;;;;;;;;;;;1020238;29;19918;-74
2022/08/31 01:32:04;;;;;;;;;;;;;;;;;;1020281;29;19960;-75
2022/08/31 01:32:35;;;;;;;;;;;;;;;;;;1016368;29;19942;-74
2022/08/31 01:33:05;;;;;;;;;;;;;;;;;;1016395;29;20502;-74
2022/08/31 01:33:35;;;;;;;;;;;;;;;;;;1016482;29;19911;-74
2022/08/31 01:34:05;;;;;;;;;;;;;;;;;;1016307;29;19911;-74
2022/08/31 01:34:36;;;;;;;;;;;;;;;;;;1020745;29;19910;-75
2022/08/31 01:35:06;;;;;;;;;;;;;;;;;;1020553;29;20394;-74
2022/08/31 01:35:36;;;;;;;;;;;;;;;;;;1020728;29;19911;-74
2022/08/31 01:36:07;;;;;;;;;;;;;;;;;;1020579;29;19914;-74
2022/08/31 01:36:37;;;;;;;;;;;;;;;;;;1020303;29;20013;-75
2022/08/31 01:37:07;;;;;;;;;;;;;;;;;;1020171;29;19914;-74
2022/08/31 01:37:37;;;;;;;;;;;;;;;;;;1020443;29;19906;-74
2022/08/31 01:38:09;;;;;;;;;;;;;;;;;;1020209;29;20336;-74
2022/08/31 01:38:40;;;;;;;;;;;;;;;;;;1020693;29;20378;-75
2022/08/31 01:39:10;;;;;;;;;;;;;;;;;;1020082;29;19911;-74
2022/08/31 01:39:40;;;;;;;;;;;;;;;;;;1020430;29;19911;-74
2022/08/31 01:40:10;;;;;;;;;;;;;;;;;;1020254;29;19910;-74
2022/08/31 01:40:41;;;;;;;;;;;;;;;;;;1020371;29;19910;-74
2022/08/31 01:41:11;;;;;;;;;;;;;;;;;;1020560;29;19915;-75
2022/08/31 01:41:42;;;;;;;;;;;;;;;;;;1020713;29;19974;-75
2022/08/31 01:42:13;;;;;;;;;;;;;;;;;;1019975;29;19942;-75
2022/08/31 01:42:43;;;;;;;;;;;;;;;;;;1020285;29;19910;-75
2022/08/31 01:43:13;;;;;;;;;;;;;;;;;;1020179;29;20346;-74
2022/08/31 01:43:44;;;;;;;;;;;;;;;;;;1020270;29;19919;-75
2022/08/31 01:44:14;;;;;;;;;;;;;;;;;;1016233;29;19911;-75
2022/08/31 01:44:44;;;;;;;;;;;;;;;;;;1016474;29;20009;-75
2022/08/31 01:45:14;;;;;;;;;;;;;;;;;;1016304;29;19910;-75
2022/08/31 01:45:45;;;;;;;;;;;;;;;;;;1016395;29;19911;-75
2022/08/31 01:46:15;;;;;;;;;;;;;;;;;;1020168;29;19915;-75
2022/08/31 01:46:45;;;;;;;;;;;;;;;;;;1020309;29;19918;-75
2022/08/31 01:47:16;;;;;;;;;;;;;;;;;;1020207;29;20011;-75
2022/08/31 01:47:46;;;;;;;;;;;;;;;;;;1020439;29;19911;-75
2022/08/31 01:48:16;;;;;;;;;;;;;;;;;;1020205;29;19917;-75
2022/08/31 01:48:46;;;;;;;;;;;;;;;;;;1020741;29;19911;-75
2022/08/31 01:49:17;;;;;;;;;;;;;;;;;;1019994;29;20364;-75
2022/08/31 01:49:47;;;;;;;;;;;;;;;;;;1020294;29;19950;-75
2022/08/31 01:50:17;;;;;;;;;;;;;;;;;;1020151;29;19910;-75
2022/08/31 01:50:48;;;;;;;;;;;;;;;;;;1020429;29;20397;-75
2022/08/31 01:51:18;;;;;;;;;;;;;;;;;;1020083;29;20009;-75
2022/08/31 01:51:48;;;;;;;;;;;;;;;;;;1020640;29;19910;-75
2022/08/31 01:52:19;;;;;;;;;;;;;;;;;;1019975;29;19910;-75
2022/08/31 01:52:49;;;;;;;;;;;;;;;;;;1020442;29;20395;-75
2022/08/31 01:53:19;;;;;;;;;;;;;;;;;;1020150;29;19950;-75
2022/08/31 01:53:49;;;;;;;;;;;;;;;;;;1020398;29;19911;-75
2022/08/31 01:54:21;;;;;;;;;;;;;;;;;;1020424;29;19962;-75
2022/08/31 01:54:51;;;;;;;;;;;;;;;;;;1020252;29;19946;-75
2022/08/31 01:55:22;;;;;;;;;;;;;;;;;;1020135;29;19915;-74
2022/08/31 01:55:52;;;;;;;;;;;;;;;;;;1020299;29;20414;-74
2022/08/31 01:56:22;;;;;;;;;;;;;;;;;;1020124;29;19911;-74
2022/08/31 01:56:53;;;;;;;;;;;;;;;;;;1020350;29;19911;-74
2022/08/31 01:57:23;;;;;;;;;;;;;;;;;;1020081;29;19911;-74
2022/08/31 01:57:53;;;;;;;;;;;;;;;;;;1020645;29;20355;-75
2022/08/31 01:58:23;;;;;;;;;;;;;;;;;;1020448;29;19910;-75
2022/08/31 01:58:54;;;;;;;;;;;;;;;;;;1020663;29;20435;-75
2022/08/31 01:59:24;;;;;;;;;;;;;;;;;;1020037;29;19910;-75
2022/08/31 01:59:54;;;;;;;;;;;;;;;;;;1020270;29;20283;-75
2022/08/31 02:00:24;;;;;;;;;;;;;;;;;;1020116;29;19922;-75
2022/08/31 02:00:55;;;;;;;;;;;;;;;;;;1020305;29;20256;-75
2022/08/31 02:01:25;;;;;;;;;;;;;;;;;;1020195;29;19911;-75
2022/08/31 02:01:55;;;;;;;;;;;;;;;;;;1020237;29;20038;-75
2022/08/31 02:02:26;;;;;;;;;;;;;;;;;;1020686;29;19911;-75
2022/08/31 02:02:56;;;;;;;;;;;;;;;;;;1020312;29;19910;-75
2022/08/31 02:03:26;;;;;;;;;;;;;;;;;;1020100;29;19910;-75
2022/08/31 02:03:56;;;;;;;;;;;;;;;;;;1020366;29;19969;-75
2022/08/31 02:04:27;;;;;;;;;;;;;;;;;;1020223;29;19917;-75
2022/08/31 02:04:58;;;;;;;;;;;;;;;;;;1020064;29;19911;-75
2022/08/31 02:05:28;;;;;;;;;;;;;;;;;;1020237;29;19918;-75
2022/08/31 02:05:58;;;;;;;;;;;;;;;;;;1020219;29;19911;-75
2022/08/31 02:06:28;;;;;;;;;;;;;;;;;;1020132;29;19946;-75
2022/08/31 02:06:59;;;;;;;;;;;;;;;;;;1020069;29;19911;-75
2022/08/31 02:07:29;;;;;;;;;;;;;;;;;;1020300;29;20371;-75
2022/08/31 02:07:59;;;;;;;;;;;;;;;;;;1020225;29;20013;-75
2022/08/31 02:08:30;;;;;;;;;;;;;;;;;;1020286;29;19911;-75
2022/08/31 02:09:00;;;;;;;;;;;;;;;;;;1020484;29;20354;-75
2022/08/31 02:09:30;;;;;;;;;;;;;;;;;;1020525;29;19911;-75
2022/08/31 02:10:00;;;;;;;;;;;;;;;;;;1020495;29;19914;-75
2022/08/31 02:10:31;;;;;;;;;;;;;;;;;;1020109;29;20348;-75
2022/08/31 02:11:01;;;;;;;;;;;;;;;;;;1020258;29;19910;-75
2022/08/31 02:11:31;;;;;;;;;;;;;;;;;;1020154;29;19915;-75
2022/08/31 02:12:01;;;;;;;;;;;;;;;;;;1020242;29;20252;-75
2022/08/31 02:12:32;;;;;;;;;;;;;;;;;;1020515;29;19918;-75
2022/08/31 02:13:02;;;;;;;;;;;;;;;;;;1020467;29;20269;-75
2022/08/31 02:13:32;;;;;;;;;;;;;;;;;;1020498;29;19911;-75
2022/08/31 02:14:03;;;;;;;;;;;;;;;;;;1020457;29;19918;-75
2022/08/31 02:14:33;;;;;;;;;;;;;;;;;;1020573;29;19910;-75
2022/08/31 02:15:03;;;;;;;;;;;;;;;;;;1020482;29;20343;-75
2022/08/31 02:15:33;;;;;;;;;;;;;;;;;;1020618;29;19911;-75
2022/08/31 02:16:04;;;;;;;;;;;;;;;;;;1019982;29;19933;-75
2022/08/31 02:16:34;;;;;;;;;;;;;;;;;;1020102;29;19911;-75
2022/08/31 02:17:04;;;;;;;;;;;;;;;;;;1020400;29;20360;-75
2022/08/31 02:17:35;;;;;;;;;;;;;;;;;;1020539;29;19911;-75
2022/08/31 02:18:05;;;;;;;;;;;;;;;;;;1020445;29;20390;-75
2022/08/31 02:18:35;;;;;;;;;;;;;;;;;;1020602;29;19914;-75
2022/08/31 02:19:05;;;;;;;;;;;;;;;;;;1020389;29;20463;-75
2022/08/31 02:19:36;;;;;;;;;;;;;;;;;;1020592;29;19911;-75
2022/08/31 02:20:06;;;;;;;;;;;;;;;;;;1020378;29;19959;-75
2022/08/31 02:20:36;;;;;;;;;;;;;;;;;;1020184;29;19910;-75
2022/08/31 02:21:07;;;;;;;;;;;;;;;;;;1020148;29;20359;-75
2022/08/31 02:21:37;;;;;;;;;;;;;;;;;;1016262;29;19911;-75
2022/08/31 02:22:07;;;;;;;;;;;;;;;;;;1016038;29;20407;-75
2022/08/31 02:22:37;;;;;;;;;;;;;;;;;;1016387;29;19914;-75
2022/08/31 02:23:08;;;;;;;;;;;;;;;;;;1016116;29;19911;-75
2022/08/31 02:23:38;;;;;;;;;;;;;;;;;;1020274;29;20450;-75
2022/08/31 02:24:10;;;;;;;;;;;;;;;;;;1020020;29;19918;-75
2022/08/31 02:24:40;;;;;;;;;;;;;;;;;;1020279;29;19918;-75
2022/08/31 02:25:10;;;;;;;;;;;;;;;;;;1020109;29;19911;-75
2022/08/31 02:25:41;;;;;;;;;;;;;;;;;;1020101;29;19911;-75
2022/08/31 02:26:11;;;;;;;;;;;;;;;;;;1016458;29;19911;-75
2022/08/31 02:26:41;;;;;;;;;;;;;;;;;;1016559;29;20414;-75
2022/08/31 02:27:12;;;;;;;;;;;;;;;;;;1015983;29;20300;-75
2022/08/31 02:27:42;;;;;;;;;;;;;;;;;;1016253;29;20414;-75
2022/08/31 02:28:12;;;;;;;;;;;;;;;;;;1016084;29;20013;-75
2022/08/31 02:28:43;;;;;;;;;;;;;;;;;;1016344;29;19911;-75
2022/08/31 02:29:13;;;;;;;;;;;;;;;;;;1020129;29;19946;-75
2022/08/31 02:29:44;;;;;;;;;;;;;;;;;;1020164;29;20005;-75
2022/08/31 02:30:14;;;;;;;;;;;;;;;;;;1016467;29;20017;-75
2022/08/31 02:30:44;;;;;;;;;;;;;;;;;;1016220;29;19985;-75
2022/08/31 02:31:14;;;;;;;;;;;;;;;;;;1016107;29;20376;-75
2022/08/31 02:31:45;;;;;;;;;;;;;;;;;;1016333;29;19929;-75
2022/08/31 02:32:15;;;;;;;;;;;;;;;;;;1016075;29;19918;-75
2022/08/31 02:32:45;;;;;;;;;;;;;;;;;;1020298;29;20002;-75
2022/08/31 02:33:16;;;;;;;;;;;;;;;;;;1016445;29;19911;-75
2022/08/31 02:33:46;;;;;;;;;;;;;;;;;;1016766;29;19911;-75
2022/08/31 02:34:17;;;;;;;;;;;;;;;;;;1015931;29;19911;-75
2022/08/31 02:34:47;;;;;;;;;;;;;;;;;;1016406;29;19911;-75
2022/08/31 02:35:17;;;;;;;;;;;;;;;;;;1016109;29;19934;-75
2022/08/31 02:35:47;;;;;;;;;;;;;;;;;;1016296;29;19911;-75
2022/08/31 02:36:18;;;;;;;;;;;;;;;;;;1019923;29;19911;-75
2022/08/31 02:36:48;;;;;;;;;;;;;;;;;;1020254;29;19962;-75
2022/08/31 02:37:18;;;;;;;;;;;;;;;;;;1020043;29;19918;-75
2022/08/31 02:37:49;;;;;;;;;;;;;;;;;;1020315;29;19910;-75
2022/08/31 02:38:19;;;;;;;;;;;;;;;;;;1016373;29;19911;-75
2022/08/31 02:38:50;;;;;;;;;;;;;;;;;;1016720;29;19915;-75
2022/08/31 02:39:20;;;;;;;;;;;;;;;;;;1016382;29;19911;-75
2022/08/31 02:39:50;;;;;;;;;;;;;;;;;;1016391;29;19915;-75
2022/08/31 02:40:21;;;;;;;;;;;;;;;;;;1016077;29;19950;-75
2022/08/31 02:40:51;;;;;;;;;;;;;;;;;;1016379;29;19982;-75
2022/08/31 02:41:21;;;;;;;;;;;;;;;;;;1016110;29;20017;-75
2022/08/31 02:41:51;;;;;;;;;;;;;;;;;;1016484;29;19918;-75
2022/08/31 02:42:22;;;;;;;;;;;;;;;;;;1016374;29;20269;-75
2022/08/31 02:42:52;;;;;;;;;;;;;;;;;;1016687;29;20283;-75
2022/08/31 02:43:22;;;;;;;;;;;;;;;;;;1016393;29;19975;-75
2022/08/31 02:43:52;;;;;;;;;;;;;;;;;;1016215;29;19917;-75
2022/08/31 02:44:23;;;;;;;;;;;;;;;;;;1016088;29;19911;-75
2022/08/31 02:44:53;;;;;;;;;;;;;;;;;;1016233;29;19962;-75
2022/08/31 02:45:23;;;;;;;;;;;;;;;;;;1016090;29;20387;-75
2022/08/31 02:45:54;;;;;;;;;;;;;;;;;;1020301;29;19910;-75
2022/08/31 02:46:24;;;;;;;;;;;;;;;;;;1020030;29;19977;-75
2022/08/31 02:46:55;;;;;;;;;;;;;;;;;;1020181;29;20009;-75
2022/08/31 02:47:26;;;;;;;;;;;;;;;;;;1015994;29;20003;-75
2022/08/31 02:47:56;;;;;;;;;;;;;;;;;;1016331;29;19918;-75
2022/08/31 02:48:26;;;;;;;;;;;;;;;;;;1016128;29;19918;-75
2022/08/31 02:48:57;;;;;;;;;;;;;;;;;;1016497;29;19914;-75
2022/08/31 02:49:27;;;;;;;;;;;;;;;;;;1020144;29;20383;-75
2022/08/31 02:49:57;;;;;;;;;;;;;;;;;;1016531;29;19911;-75
2022/08/31 02:50:27;;;;;;;;;;;;;;;;;;1016086;29;20291;-75
2022/08/31 02:50:58;;;;;;;;;;;;;;;;;;1016226;29;20435;-75
2022/08/31 02:51:28;;;;;;;;;;;;;;;;;;1016093;29;19918;-75
2022/08/31 02:51:58;;;;;;;;;;;;;;;;;;1016068;29;19946;-75
2022/08/31 02:52:29;;;;;;;;;;;;;;;;;;1020077;29;19911;-75
2022/08/31 02:52:59;;;;;;;;;;;;;;;;;;1020158;29;19954;-75
2022/08/31 02:53:29;;;;;;;;;;;;;;;;;;1016200;29;19911;-75
2022/08/31 02:54:00;;;;;;;;;;;;;;;;;;1016204;29;19915;-75
2022/08/31 02:54:30;;;;;;;;;;;;;;;;;;1016268;29;20067;-75
2022/08/31 02:55:00;;;;;;;;;;;;;;;;;;1016165;29;20364;-75
2022/08/31 02:55:30;;;;;;;;;;;;;;;;;;1016584;29;19911;-75
2022/08/31 02:56:01;;;;;;;;;;;;;;;;;;1016052;29;19973;-75
2022/08/31 02:56:31;;;;;;;;;;;;;;;;;;1015998;29;19911;-75
2022/08/31 02:57:01;;;;;;;;;;;;;;;;;;1016151;29;19915;-75
2022/08/31 02:57:32;;;;;;;;;;;;;;;;;;1016280;29;20010;-75
2022/08/31 02:58:02;;;;;;;;;;;;;;;;;;1020107;29;20009;-75
2022/08/31 02:58:32;;;;;;;;;;;;;;;;;;1020028;29;19911;-75
2022/08/31 02:59:02;;;;;;;;;;;;;;;;;;1020191;29;19910;-75
2022/08/31 02:59:33;;;;;;;;;;;;;;;;;;1020158;29;19982;-75
2022/08/31 03:00:03;;;;;;;;;;;;;;;;;;1019889;29;19911;-75
2022/08/31 03:00:33;;;;;;;;;;;;;;;;;;1020140;29;19933;-75
2022/08/31 03:01:04;;;;;;;;;;;;;;;;;;1020050;29;19911;-75
2022/08/31 03:01:34;;;;;;;;;;;;;;;;;;1016104;29;19971;-75
2022/08/31 03:02:04;;;;;;;;;;;;;;;;;;1016065;29;19911;-75
2022/08/31 03:02:34;;;;;;;;;;;;;;;;;;1016276;29;20395;-75
2022/08/31 03:03:05;;;;;;;;;;;;;;;;;;1016178;29;20349;-75
2022/08/31 03:03:35;;;;;;;;;;;;;;;;;;1020498;29;20283;-75
2022/08/31 03:04:05;;;;;;;;;;;;;;;;;;1020318;29;19918;-75
2022/08/31 03:04:35;;;;;;;;;;;;;;;;;;1020444;29;20009;-75
2022/08/31 03:05:09;;;;;;;;;;;;;;;;;;1019871;29;19954;-75
2022/08/31 03:05:39;;;;;;;;;;;;;;;;;;1020208;29;20005;-75
2022/08/31 03:06:09;;;;;;;;;;;;;;;;;;1019987;29;20363;-75
2022/08/31 03:06:39;;;;;;;;;;;;;;;;;;1020262;29;19910;-75
2022/08/31 03:07:10;;;;;;;;;;;;;;;;;;1020230;29;19946;-75
2022/08/31 03:07:40;;;;;;;;;;;;;;;;;;1020508;29;19911;-75
2022/08/31 03:08:10;;;;;;;;;;;;;;;;;;1020338;29;20057;-75
2022/08/31 03:08:41;;;;;;;;;;;;;;;;;;1020501;29;19910;-75
2022/08/31 03:09:11;;;;;;;;;;;;;;;;;;1020349;29;19918;-75
2022/08/31 03:09:41;;;;;;;;;;;;;;;;;;1020457;29;19911;-75
2022/08/31 03:10:12;;;;;;;;;;;;;;;;;;1019910;29;19915;-75
2022/08/31 03:10:43;;;;;;;;;;;;;;;;;;1020046;29;20013;-75
2022/08/31 03:11:13;;;;;;;;;;;;;;;;;;1020049;29;20418;-75
2022/08/31 03:11:43;;;;;;;;;;;;;;;;;;1020078;29;19954;-75
2022/08/31 03:12:13;;;;;;;;;;;;;;;;;;1019921;29;20359;-75
2022/08/31 03:12:44;;;;;;;;;;;;;;;;;;1020440;29;19945;-75
2022/08/31 03:13:14;;;;;;;;;;;;;;;;;;1020295;29;20407;-75
2022/08/31 03:13:44;;;;;;;;;;;;;;;;;;1020460;29;19917;-75
2022/08/31 03:14:15;;;;;;;;;;;;;;;;;;1020239;29;20361;-75
2022/08/31 03:14:45;;;;;;;;;;;;;;;;;;1020180;29;20014;-75
2022/08/31 03:15:15;;;;;;;;;;;;;;;;;;1020052;29;19911;-75
2022/08/31 03:15:45;;;;;;;;;;;;;;;;;;1020261;29;19911;-75
2022/08/31 03:16:16;;;;;;;;;;;;;;;;;;1019998;29;19911;-75
2022/08/31 03:16:46;;;;;;;;;;;;;;;;;;1020020;29;19911;-75
2022/08/31 03:17:16;;;;;;;;;;;;;;;;;;1019860;29;19957;-75
2022/08/31 03:17:46;;;;;;;;;;;;;;;;;;1020231;29;19943;-75
2022/08/31 03:18:17;;;;;;;;;;;;;;;;;;1019970;29;20447;-75
2022/08/31 03:18:47;;;;;;;;;;;;;;;;;;1020146;29;19917;-75
2022/08/31 03:19:17;;;;;;;;;;;;;;;;;;1019953;29;19910;-75
2022/08/31 03:19:48;;;;;;;;;;;;;;;;;;1020233;29;19915;-75
2022/08/31 03:20:18;;;;;;;;;;;;;;;;;;1019998;29;20039;-75
2022/08/31 03:20:48;;;;;;;;;;;;;;;;;;1019901;29;20375;-75
2022/08/31 03:21:19;;;;;;;;;;;;;;;;;;1020318;29;20004;-75
2022/08/31 03:21:49;;;;;;;;;;;;;;;;;;1020439;29;19949;-75
2022/08/31 03:22:19;;;;;;;;;;;;;;;;;;1020185;29;19966;-75
2022/08/31 03:22:49;;;;;;;;;;;;;;;;;;1020560;29;19918;-75
2022/08/31 03:23:20;;;;;;;;;;;;;;;;;;1020219;29;20375;-75
2022/08/31 03:23:50;;;;;;;;;;;;;;;;;;1020509;29;19911;-75
2022/08/31 03:24:20;;;;;;;;;;;;;;;;;;1020209;29;20327;-75
2022/08/31 03:24:51;;;;;;;;;;;;;;;;;;1020177;29;20017;-75
2022/08/31 03:25:21;;;;;;;;;;;;;;;;;;1020042;29;20031;-75
2022/08/31 03:25:51;;;;;;;;;;;;;;;;;;1019974;29;19911;-75
2022/08/31 03:26:22;;;;;;;;;;;;;;;;;;1019919;29;19962;-75
2022/08/31 03:26:52;;;;;;;;;;;;;;;;;;1020154;29;20020;-75
2022/08/31 03:27:23;;;;;;;;;;;;;;;;;;1019944;29;19915;-75
2022/08/31 03:27:53;;;;;;;;;;;;;;;;;;1020631;29;19911;-75
2022/08/31 03:28:24;;;;;;;;;;;;;;;;;;1020657;29;19911;-75
2022/08/31 03:28:54;;;;;;;;;;;;;;;;;;1020912;29;19910;-75
2022/08/31 03:29:25;;;;;;;;;;;;;;;;;;1020736;29;20001;-75
2022/08/31 03:29:55;;;;;;;;;;;;;;;;;;1021169;29;19917;-75
2022/08/31 03:30:25;;;;;;;;;;;;;;;;;;1020575;29;19918;-75
2022/08/31 03:30:55;;;;;;;;;;;;;;;;;;1020093;29;19953;-75
2022/08/31 03:31:26;;;;;;;;;;;;;;;;;;1019741;29;20667;-75
2022/08/31 03:31:56;;;;;;;;;;;;;;;;;;1020851;29;19914;-75